Orono, Maine
Current Conditions -  °F | °C
As of 10:53 PM on Thursday 27 Nov 2014 (Local Time) from KBGR Reporting Station
Few Clouds Few Clouds  
Wind Chill: 15°   Ceiling: Unl
Heat Index: 15°   Visibility: 10mi
Dew Point: 11°   Wind: 0mph
Humidity: 84%   Direction: NA
Pressure: 30.05"   Gusts: NA
Location:  44.88°N, 68.67°W
Report Text: KBGR 280353Z 00000KT 10SM FEW200 M09/M12 A3005 RMK AO2 SLP178 I1001 T10941117
Loading
Personal Weather Stations






























Interactive Weather Map New forecast layout! Learn more

10-Day Weather Forecast

Advertisements
Track Severe Weather on mobile